Time;durP1;ratioP1;P1;durP2;ratioP2;P2;SDS_P1;SDS_P2;PMS_P1;PMS_P2;Temp;Humidity;BMP_temperature;BMP_pressure;BME280_temperature;BME280_humidity;BME280_pressure;Samples;Min_cycle;Max_cycle;Signal;HPM_P1;HPM_P2
2023/02/19 00:01:58;;;;;;;24.13;14.03;;;;;;;;;;4991183;28;20415;-46
2023/02/19 00:04:24;;;;;;;27.97;15.10;;;;;;;;;;4991946;28;20423;-44
2023/02/19 00:06:50;;;;;;;25.27;13.73;;;;;;;;;;4992278;28;20910;-45
2023/02/19 00:09:18;;;;;;;29.03;15.87;;;;;;;;;;4991865;28;20439;-45
2023/02/19 00:11:45;;;;;;;30.97;15.63;;;;;;;;;;4991405;28;20900;-45
2023/02/19 00:14:13;;;;;;;23.87;13.63;;;;;;;;;;4991521;28;20615;-46
2023/02/19 00:16:39;;;;;;;36.10;18.37;;;;;;;;;;4991874;28;20407;-46
2023/02/19 00:19:07;;;;;;;30.93;17.67;;;;;;;;;;4991651;28;20823;-45
2023/02/19 00:21:33;;;;;;;37.17;18.20;;;;;;;;;;4991577;28;20495;-45
2023/02/19 00:24:01;;;;;;;38.63;18.17;;;;;;;;;;4991217;28;20420;-45
2023/02/19 00:26:27;;;;;;;35.20;19.83;;;;;;;;;;4991645;28;20908;-45
2023/02/19 00:28:53;;;;;;;33.80;19.10;;;;;;;;;;4991627;28;20430;-45
2023/02/19 00:31:23;;;;;;;37.47;20.10;;;;;;;;;;4991392;28;20419;-45
2023/02/19 00:33:51;;;;;;;38.80;21.57;;;;;;;;;;4991192;28;20809;-45
2023/02/19 00:36:17;;;;;;;39.60;19.30;;;;;;;;;;4991737;28;20400;-46
2023/02/19 00:38:44;;;;;;;41.57;21.60;;;;;;;;;;4992063;28;20408;-45
2023/02/19 00:41:20;;;;;;;44.50;21.07;;;;;;;;;;4991172;28;20478;-45
2023/02/19 00:43:50;;;;;;;40.07;20.10;;;;;;;;;;4991138;28;20423;-45
2023/02/19 00:46:17;;;;;;;40.00;19.63;;;;;;;;;;4986268;28;20415;-45
2023/02/19 00:48:43;;;;;;;36.97;18.70;;;;;;;;;;4991264;28;20434;-45
2023/02/19 00:51:10;;;;;;;31.60;18.30;;;;;;;;;;4991262;28;20435;-45
2023/02/19 00:53:36;;;;;;;31.60;17.73;;;;;;;;;;4990776;28;20487;-45
2023/02/19 00:56:02;;;;;;;32.93;17.60;;;;;;;;;;4993648;28;20404;-45
2023/02/19 00:58:28;;;;;;;29.27;16.33;;;;;;;;;;4995090;28;20407;-44
2023/02/19 01:00:54;;;;;;;30.57;15.83;;;;;;;;;;4994605;28;20459;-43
2023/02/19 01:03:21;;;;;;;22.03;14.37;;;;;;;;;;4994456;28;20420;-43
2023/02/19 01:05:48;;;;;;;23.27;13.47;;;;;;;;;;4995010;28;20412;-44
2023/02/19 01:08:14;;;;;;;22.63;13.97;;;;;;;;;;4994802;28;20423;-44
2023/02/19 01:10:40;;;;;;;21.83;12.13;;;;;;;;;;4994690;28;20443;-45
2023/02/19 01:13:06;;;;;;;22.40;13.27;;;;;;;;;;4994282;28;20550;-45
2023/02/19 01:15:32;;;;;;;23.37;13.57;;;;;;;;;;4994849;28;20404;-45
2023/02/19 01:17:58;;;;;;;21.97;12.27;;;;;;;;;;4994750;28;20408;-45
2023/02/19 01:20:25;;;;;;;27.03;13.50;;;;;;;;;;4994036;28;20781;-45
2023/02/19 01:22:51;;;;;;;29.37;14.67;;;;;;;;;;4993611;28;20922;-45
2023/02/19 01:25:17;;;;;;;29.07;14.90;;;;;;;;;;4993506;28;20418;-45
2023/02/19 01:27:43;;;;;;;28.43;15.20;;;;;;;;;;4994787;28;20830;-46
2023/02/19 01:30:09;;;;;;;32.80;17.07;;;;;;;;;;4994606;28;20506;-46
2023/02/19 01:32:35;;;;;;;33.43;16.57;;;;;;;;;;4993588;28;20428;-46
2023/02/19 01:35:01;;;;;;;28.90;15.10;;;;;;;;;;4994367;28;20820;-46
2023/02/19 01:37:27;;;;;;;27.80;15.37;;;;;;;;;;4994574;28;20407;-46
2023/02/19 01:39:53;;;;;;;34.23;18.10;;;;;;;;;;4994559;28;20789;-49
2023/02/19 01:42:19;;;;;;;33.97;18.90;;;;;;;;;;4993708;28;20899;-48
2023/02/19 01:44:45;;;;;;;43.63;20.97;;;;;;;;;;4994474;28;20781;-45
2023/02/19 01:47:11;;;;;;;48.70;23.80;;;;;;;;;;4994307;28;20409;-45
2023/02/19 01:49:39;;;;;;;52.10;25.07;;;;;;;;;;4993978;28;20428;-45
2023/02/19 01:52:05;;;;;;;48.27;23.03;;;;;;;;;;4993338;28;20405;-45
2023/02/19 01:54:34;;;;;;;45.00;22.80;;;;;;;;;;4994142;28;20807;-45
2023/02/19 01:57:01;;;;;;;43.57;24.27;;;;;;;;;;4992331;28;20465;-45
2023/02/19 01:59:27;;;;;;;49.27;22.83;;;;;;;;;;4994190;28;20931;-45
2023/02/19 02:01:53;;;;;;;48.17;21.67;;;;;;;;;;4992892;28;20427;-45
2023/02/19 02:04:19;;;;;;;50.33;23.40;;;;;;;;;;4991759;28;20418;-49
2023/02/19 02:06:52;;;;;;;54.10;24.60;;;;;;;;;;4992852;28;20427;-43
2023/02/19 02:12:04;;;;;;;49.77;25.00;;;;;;;;;;4993233;28;20441;-45
2023/02/19 02:14:33;;;;;;;42.33;23.67;;;;;;;;;;4993852;28;20478;-45
2023/02/19 02:17:18;;;;;;;50.10;22.93;;;;;;;;;;4993634;28;20420;-45
2023/02/19 02:19:43;;;;;;;48.93;22.70;;;;;;;;;;4993495;28;20432;-44
2023/02/19 02:22:19;;;;;;;50.47;23.60;;;;;;;;;;4993041;28;20408;-45
2023/02/19 02:25:03;;;;;;;48.33;25.83;;;;;;;;;;4993686;28;20407;-45
2023/02/19 02:27:36;;;;;;;42.67;23.47;;;;;;;;;;4987625;28;20423;-45
2023/02/19 02:30:11;;;;;;;53.57;27.20;;;;;;;;;;4993433;28;20440;-45
2023/02/19 02:33:00;;;;;;;45.20;23.30;;;;;;;;;;4992509;28;20527;-45
2023/02/19 02:35:27;;;;;;;44.07;22.43;;;;;;;;;;4986735;28;20432;-45
2023/02/19 02:37:56;;;;;;;41.07;22.23;;;;;;;;;;4993234;28;20404;-45
2023/02/19 02:40:22;;;;;;;41.07;21.23;;;;;;;;;;4993263;28;20420;-44
2023/02/19 02:42:48;;;;;;;35.23;18.77;;;;;;;;;;4992453;28;20415;-45
2023/02/19 02:45:34;;;;;;;35.23;19.33;;;;;;;;;;4993215;28;20414;-45
2023/02/19 02:48:13;;;;;;;39.80;19.53;;;;;;;;;;4992997;28;20961;-45
2023/02/19 02:50:45;;;;;;;42.70;19.70;;;;;;;;;;4993062;28;21003;-45
2023/02/19 02:56:00;;;;;;;46.93;19.00;;;;;;;;;;4995683;28;20416;-45
2023/02/19 02:58:26;;;;;;;41.43;20.03;;;;;;;;;;4992784;28;20502;-45
2023/02/19 03:03:56;;;;;;;34.43;19.00;;;;;;;;;;4991966;28;20464;-45
2023/02/19 03:06:23;;;;;;;42.37;20.20;;;;;;;;;;4992886;28;20498;-45
2023/02/19 03:09:07;;;;;;;33.93;17.90;;;;;;;;;;4992542;28;20452;-46
2023/02/19 03:20:00;;;;;;;67.07;27.70;;;;;;;;;;4990744;28;20950;-45
2023/02/19 03:22:29;;;;;;;63.00;31.33;;;;;;;;;;4992003;28;20410;-45
2023/02/19 03:27:44;;;;;;;61.40;29.20;;;;;;;;;;4992709;28;20427;-45
2023/02/19 03:30:18;;;;;;;48.63;24.07;;;;;;;;;;4991883;28;20514;-45
2023/02/19 03:32:59;;;;;;;55.10;26.83;;;;;;;;;;4991686;28;20514;-45
2023/02/19 03:35:26;;;;;;;57.83;26.37;;;;;;;;;;4986069;28;20756;-45
2023/02/19 03:38:05;;;;;;;60.60;29.10;;;;;;;;;;4992289;28;20458;-45
2023/02/19 03:40:33;;;;;;;46.47;25.60;;;;;;;;;;4992254;28;20432;-44
2023/02/19 03:43:06;;;;;;;59.77;28.57;;;;;;;;;;4991520;28;20420;-44
2023/02/19 03:45:32;;;;;;;60.20;27.13;;;;;;;;;;4992313;28;20423;-44
2023/02/19 03:47:58;;;;;;;49.90;24.40;;;;;;;;;;4992197;28;20464;-45
2023/02/19 03:50:27;;;;;;;54.27;24.27;;;;;;;;;;4992174;28;20434;-44
2023/02/19 03:53:02;;;;;;;56.90;24.47;;;;;;;;;;4991368;28;20427;-44
2023/02/19 03:55:33;;;;;;;51.93;22.67;;;;;;;;;;4992085;28;20422;-44
2023/02/19 03:58:15;;;;;;;49.23;23.70;;;;;;;;;;4992010;28;20919;-48
2023/02/19 04:00:44;;;;;;;57.93;25.40;;;;;;;;;;4992116;28;20854;-46
2023/02/19 04:03:30;;;;;;;48.30;23.13;;;;;;;;;;4991276;28;20425;-48
2023/02/19 04:06:00;;;;;;;47.90;23.67;;;;;;;;;;4991978;28;20776;-47
2023/02/19 04:08:27;;;;;;;49.83;23.50;;;;;;;;;;4992059;28;20472;-46
2023/02/19 04:10:55;;;;;;;48.80;23.17;;;;;;;;;;4991954;28;20436;-46
2023/02/19 04:13:41;;;;;;;47.60;22.87;;;;;;;;;;4991831;28;20464;-46
2023/02/19 04:16:08;;;;;;;47.50;22.50;;;;;;;;;;4992083;28;20495;-46
2023/02/19 04:18:37;;;;;;;54.60;23.10;;;;;;;;;;4992308;28;20405;-47
2023/02/19 04:21:04;;;;;;;49.93;22.87;;;;;;;;;;4991974;28;20522;-48
2023/02/19 04:23:31;;;;;;;52.90;24.50;;;;;;;;;;4991395;28;20441;-46
2023/02/19 04:25:59;;;;;;;45.20;20.77;;;;;;;;;;4991515;28;20500;-46
2023/02/19 04:28:25;;;;;;;44.97;20.37;;;;;;;;;;4991847;28;20932;-46
2023/02/19 04:30:51;;;;;;;52.13;22.40;;;;;;;;;;4993795;28;20520;-48
2023/02/19 04:33:17;;;;;;;45.77;22.07;;;;;;;;;;4994933;28;20464;-48
2023/02/19 04:35:43;;;;;;;49.37;23.40;;;;;;;;;;4995469;28;20748;-46
2023/02/19 04:38:09;;;;;;;45.13;20.27;;;;;;;;;;4995496;28;20435;-46
2023/02/19 04:40:35;;;;;;;41.90;21.37;;;;;;;;;;4995363;28;20950;-46
2023/02/19 04:43:01;;;;;;;43.60;18.93;;;;;;;;;;4994830;28;20411;-48
2023/02/19 04:45:57;;;;;;;36.47;19.60;;;;;;;;;;4994223;28;20899;-46
2023/02/19 04:48:23;;;;;;;48.00;21.33;;;;;;;;;;4988218;28;20446;-45
2023/02/19 04:50:49;;;;;;;38.97;21.50;;;;;;;;;;4995416;28;20439;-46
2023/02/19 04:53:15;;;;;;;49.23;19.87;;;;;;;;;;4994750;28;20476;-46
2023/02/19 04:55:41;;;;;;;37.83;17.50;;;;;;;;;;4997732;28;20458;-46
2023/02/19 04:58:07;;;;;;;50.33;17.67;;;;;;;;;;4995142;28;20410;-45
2023/02/19 05:00:33;;;;;;;44.20;19.70;;;;;;;;;;4994989;28;20515;-48
2023/02/19 05:02:59;;;;;;;36.33;20.50;;;;;;;;;;4994685;28;20906;-46
2023/02/19 05:05:25;;;;;;;42.93;21.80;;;;;;;;;;4994969;28;20419;-46
2023/02/19 05:07:51;;;;;;;43.17;22.40;;;;;;;;;;4995005;28;20415;-47
2023/02/19 05:10:17;;;;;;;40.07;20.50;;;;;;;;;;4995002;28;20434;-46
2023/02/19 05:12:43;;;;;;;45.93;24.67;;;;;;;;;;4994453;28;20438;-45
2023/02/19 05:15:09;;;;;;;52.07;23.93;;;;;;;;;;4994482;28;20457;-48
2023/02/19 05:17:35;;;;;;;43.80;20.97;;;;;;;;;;4995018;28;20407;-48
2023/02/19 05:20:01;;;;;;;40.57;21.23;;;;;;;;;;4994728;28;20489;-48
2023/02/19 05:22:28;;;;;;;45.33;23.27;;;;;;;;;;4994247;28;20450;-46
2023/02/19 05:24:54;;;;;;;42.10;21.43;;;;;;;;;;4994557;28;20421;-46
2023/02/19 05:27:20;;;;;;;35.57;18.60;;;;;;;;;;4994780;28;20421;-45
2023/02/19 05:29:46;;;;;;;40.07;16.60;;;;;;;;;;4994396;28;20447;-46
2023/02/19 05:32:12;;;;;;;28.40;16.30;;;;;;;;;;4994537;28;20992;-48
2023/02/19 05:34:38;;;;;;;31.37;17.87;;;;;;;;;;4994011;28;20461;-48
2023/02/19 05:37:04;;;;;;;40.83;17.30;;;;;;;;;;4994397;28;20408;-47
2023/02/19 05:39:30;;;;;;;32.77;15.30;;;;;;;;;;4994382;28;20513;-46
2023/02/19 05:41:56;;;;;;;33.90;19.13;;;;;;;;;;4993028;28;20423;-46
2023/02/19 05:44:22;;;;;;;40.87;19.20;;;;;;;;;;4993644;28;20426;-45
2023/02/19 05:46:48;;;;;;;47.07;20.67;;;;;;;;;;4994290;28;20444;-45
2023/02/19 05:49:14;;;;;;;31.27;17.67;;;;;;;;;;4986409;28;20521;-45
2023/02/19 05:51:40;;;;;;;36.13;18.73;;;;;;;;;;4994413;28;20402;-45
2023/02/19 05:54:06;;;;;;;37.83;22.67;;;;;;;;;;4993538;28;20456;-45
2023/02/19 05:56:33;;;;;;;43.30;21.67;;;;;;;;;;4996619;28;20751;-45
2023/02/19 05:59:02;;;;;;;43.07;20.37;;;;;;;;;;4993719;28;20507;-45
2023/02/19 06:01:29;;;;;;;37.33;19.63;;;;;;;;;;4994127;28;20446;-45
2023/02/19 06:03:55;;;;;;;32.00;19.70;;;;;;;;;;4993396;28;20917;-45
2023/02/19 06:06:21;;;;;;;35.53;19.63;;;;;;;;;;4993815;28;20416;-45
2023/02/19 06:08:49;;;;;;;41.30;19.80;;;;;;;;;;4994316;28;20427;-45
2023/02/19 06:11:15;;;;;;;41.90;19.93;;;;;;;;;;4993767;28;20412;-45
2023/02/19 06:13:40;;;;;;;35.10;19.67;;;;;;;;;;4993223;28;20455;-44
2023/02/19 06:16:07;;;;;;;41.43;20.50;;;;;;;;;;4993555;28;20425;-45
2023/02/19 06:18:33;;;;;;;37.57;19.97;;;;;;;;;;4993699;28;20418;-44
2023/02/19 06:21:03;;;;;;;35.80;18.87;;;;;;;;;;4993521;28;20438;-45
2023/02/19 06:23:29;;;;;;;38.07;21.40;;;;;;;;;;4993440;28;20414;-56
2023/02/19 06:26:04;;;;;;;40.03;21.70;;;;;;;;;;5005176;28;20423;-48
2023/02/19 06:28:30;;;;;;;47.77;23.43;;;;;;;;;;4993638;28;20410;-45
2023/02/19 06:30:57;;;;;;;44.30;21.37;;;;;;;;;;4996739;28;20813;-45
2023/02/19 06:33:23;;;;;;;44.83;24.20;;;;;;;;;;4992844;28;20470;-45
2023/02/19 06:35:49;;;;;;;47.03;25.93;;;;;;;;;;4993184;28;20438;-45
2023/02/19 06:38:15;;;;;;;49.60;23.63;;;;;;;;;;4993183;28;20858;-45
2023/02/19 06:40:41;;;;;;;38.90;22.50;;;;;;;;;;4993417;28;20490;-45
2023/02/19 06:43:07;;;;;;;35.83;20.57;;;;;;;;;;4992451;28;20411;-45
2023/02/19 06:45:33;;;;;;;29.60;19.70;;;;;;;;;;4993311;28;20919;-45
2023/02/19 06:47:59;;;;;;;31.53;18.37;;;;;;;;;;4992879;28;20465;-45
2023/02/19 06:50:25;;;;;;;33.33;19.53;;;;;;;;;;4993081;28;20836;-45
2023/02/19 06:52:51;;;;;;;33.37;19.47;;;;;;;;;;4991944;28;20891;-45
2023/02/19 06:55:17;;;;;;;37.63;21.60;;;;;;;;;;4993065;28;20414;-44
2023/02/19 06:57:43;;;;;;;41.80;21.90;;;;;;;;;;4992907;28;20407;-44
2023/02/19 07:00:09;;;;;;;37.53;19.37;;;;;;;;;;4992792;28;20431;-45
2023/02/19 07:02:35;;;;;;;39.67;21.87;;;;;;;;;;4992318;28;20890;-44
2023/02/19 07:05:01;;;;;;;33.47;19.97;;;;;;;;;;4992805;28;20434;-44
2023/02/19 07:07:27;;;;;;;46.43;22.20;;;;;;;;;;4992468;28;20492;-44
2023/02/19 07:09:53;;;;;;;38.17;20.30;;;;;;;;;;4992525;28;20436;-45
2023/02/19 07:12:19;;;;;;;34.70;20.67;;;;;;;;;;4992674;28;20416;-45
2023/02/19 07:14:45;;;;;;;40.13;19.23;;;;;;;;;;4992037;28;20465;-44
2023/02/19 07:17:11;;;;;;;35.83;19.97;;;;;;;;;;4992340;28;20415;-44
2023/02/19 07:19:37;;;;;;;36.17;17.70;;;;;;;;;;4998440;28;20423;-45
2023/02/19 07:22:03;;;;;;;32.80;18.20;;;;;;;;;;4992912;28;20404;-44
2023/02/19 07:24:29;;;;;;;30.03;17.23;;;;;;;;;;4991909;28;20477;-44
2023/02/19 07:26:55;;;;;;;35.83;18.43;;;;;;;;;;4992225;28;20427;-44
2023/02/19 07:29:21;;;;;;;36.27;20.00;;;;;;;;;;4992605;28;20446;-46
2023/02/19 07:31:47;;;;;;;37.50;17.40;;;;;;;;;;4991442;28;20438;-45
2023/02/19 07:34:13;;;;;;;37.03;19.00;;;;;;;;;;4991283;28;20523;-46
2023/02/19 07:36:39;;;;;;;37.50;19.90;;;;;;;;;;4991790;28;20423;-45
2023/02/19 07:39:05;;;;;;;43.63;19.13;;;;;;;;;;4991526;28;20504;-45
2023/02/19 07:41:31;;;;;;;33.23;19.70;;;;;;;;;;4986253;28;20824;-44
2023/02/19 07:43:57;;;;;;;34.83;19.30;;;;;;;;;;4991040;28;20476;-45
2023/02/19 07:46:24;;;;;;;29.77;19.10;;;;;;;;;;4991742;28;20407;-45
2023/02/19 07:48:49;;;;;;;27.40;15.63;;;;;;;;;;4991301;28;20427;-45
2023/02/19 07:51:17;;;;;;;36.50;18.20;;;;;;;;;;4991538;28;20534;-45
2023/02/19 07:53:44;;;;;;;28.30;16.70;;;;;;;;;;4995117;28;20584;-45
2023/02/19 07:56:11;;;;;;;35.47;18.90;;;;;;;;;;4991636;28;20407;-44
2023/02/19 07:58:37;;;;;;;35.93;21.20;;;;;;;;;;4991715;28;20747;-45
2023/02/19 08:01:07;;;;;;;45.43;25.60;;;;;;;;;;4991516;28;20461;-47
2023/02/19 08:03:33;;;;;;;30.20;16.80;;;;;;;;;;4990961;28;20522;-46
2023/02/19 08:05:59;;;;;;;26.57;16.13;;;;;;;;;;4993982;28;20954;-49
2023/02/19 08:08:25;;;;;;;29.60;16.90;;;;;;;;;;4995377;28;20424;-47
2023/02/19 08:13:36;;;;;;;22.63;13.80;;;;;;;;;;4995172;28;20465;-48
2023/02/19 08:16:02;;;;;;;21.37;14.83;;;;;;;;;;4995113;28;20423;-44
2023/02/19 08:18:29;;;;;;;27.53;17.07;;;;;;;;;;4995344;28;20417;-45
2023/02/19 08:20:55;;;;;;;20.93;13.97;;;;;;;;;;4995877;28;20439;-44
2023/02/19 08:23:21;;;;;;;24.70;15.40;;;;;;;;;;4995142;28;20418;-44
2023/02/19 08:25:48;;;;;;;23.93;14.27;;;;;;;;;;4995812;28;20476;-44
2023/02/19 08:28:14;;;;;;;28.77;14.23;;;;;;;;;;4995534;28;20472;-45
2023/02/19 08:30:43;;;;;;;23.23;11.50;;;;;;;;;;4995274;28;20935;-44
2023/02/19 08:33:09;;;;;;;22.90;12.67;;;;;;;;;;4994836;28;20537;-44
2023/02/19 08:35:35;;;;;;;20.43;13.10;;;;;;;;;;4995939;28;20414;-44
2023/02/19 08:38:02;;;;;;;16.53;11.13;;;;;;;;;;4995694;28;20902;-44
2023/02/19 08:40:28;;;;;;;25.17;13.17;;;;;;;;;;4995546;28;20435;-44
2023/02/19 08:42:54;;;;;;;20.30;11.33;;;;;;;;;;4994841;28;20414;-44
2023/02/19 08:45:20;;;;;;;25.20;13.77;;;;;;;;;;4995530;28;20426;-44
2023/02/19 08:47:46;;;;;;;19.30;12.23;;;;;;;;;;4995405;28;20411;-45
2023/02/19 08:50:12;;;;;;;21.00;12.73;;;;;;;;;;4994977;28;20820;-44
2023/02/19 08:52:38;;;;;;;20.50;12.77;;;;;;;;;;4995225;28;20418;-45
2023/02/19 08:55:04;;;;;;;24.50;13.37;;;;;;;;;;4994839;28;20463;-45
2023/02/19 08:57:30;;;;;;;28.67;13.63;;;;;;;;;;4995691;28;20650;-44
2023/02/19 08:59:57;;;;;;;23.53;15.57;;;;;;;;;;4994717;28;20435;-45
2023/02/19 09:02:26;;;;;;;28.83;16.40;;;;;;;;;;4989313;28;20442;-44
2023/02/19 09:04:52;;;;;;;33.33;18.50;;;;;;;;;;4991027;28;20913;-45
2023/02/19 09:07:19;;;;;;;30.33;18.23;;;;;;;;;;4993229;28;20433;-44
2023/02/19 09:09:45;;;;;;;32.87;18.20;;;;;;;;;;4994508;28;20431;-44
2023/02/19 09:12:12;;;;;;;22.77;15.10;;;;;;;;;;4994756;28;20416;-45
2023/02/19 09:14:38;;;;;;;29.33;16.27;;;;;;;;;;4994812;28;20547;-47
2023/02/19 09:17:05;;;;;;;27.90;16.37;;;;;;;;;;4994700;28;20780;-47
2023/02/19 09:19:31;;;;;;;27.23;15.87;;;;;;;;;;4994566;28;20431;-46
2023/02/19 09:21:57;;;;;;;24.33;14.60;;;;;;;;;;4994926;28;20895;-46
2023/02/19 09:24:23;;;;;;;35.33;19.23;;;;;;;;;;4996398;28;20487;-44
2023/02/19 09:26:50;;;;;;;24.60;15.33;;;;;;;;;;4993438;28;20466;-46
2023/02/19 09:29:16;;;;;;;23.70;13.83;;;;;;;;;;4997859;28;20438;-47
2023/02/19 09:31:42;;;;;;;30.10;13.93;;;;;;;;;;4994686;28;20428;-46
2023/02/19 09:34:08;;;;;;;26.77;13.33;;;;;;;;;;4995363;28;20474;-46
2023/02/19 09:36:34;;;;;;;31.33;14.17;;;;;;;;;;4994702;28;20459;-45
2023/02/19 09:39:01;;;;;;;24.90;13.97;;;;;;;;;;4994084;28;20507;-45
2023/02/19 09:41:46;;;;;;;25.20;15.83;;;;;;;;;;4994460;28;20415;-44
2023/02/19 09:44:23;;;;;;;29.67;15.10;;;;;;;;;;4993906;28;20458;-44
2023/02/19 09:46:51;;;;;;;28.67;15.20;;;;;;;;;;4994147;28;20415;-44
2023/02/19 09:49:23;;;;;;;22.17;11.93;;;;;;;;;;4992794;28;20440;-45
2023/02/19 09:51:58;;;;;;;25.30;14.07;;;;;;;;;;5003436;28;20426;-44
2023/02/19 09:54:25;;;;;;;26.37;14.70;;;;;;;;;;4977029;28;20827;-44
2023/02/19 09:56:53;;;;;;;31.77;15.90;;;;;;;;;;4974618;28;20456;-45
2023/02/19 09:59:30;;;;;;;34.43;16.60;;;;;;;;;;4974179;28;20444;-44
2023/02/19 10:02:01;;;;;;;27.37;17.33;;;;;;;;;;4974544;28;20424;-45
2023/02/19 10:04:27;;;;;;;29.87;16.57;;;;;;;;;;4973917;28;20478;-44
2023/02/19 10:06:57;;;;;;;23.70;15.13;;;;;;;;;;4974470;28;20955;-45
2023/02/19 10:09:25;;;;;;;24.00;13.83;;;;;;;;;;4974174;28;20465;-45
2023/02/19 10:11:53;;;;;;;18.30;13.70;;;;;;;;;;4974528;28;20401;-44
2023/02/19 10:14:25;;;;;;;15.57;11.50;;;;;;;;;;4973831;28;20456;-45
2023/02/19 10:16:52;;;;;;;13.07;8.00;;;;;;;;;;4974398;28;20429;-45
2023/02/19 10:19:18;;;;;;;16.23;9.90;;;;;;;;;;4973987;28;20531;-44
2023/02/19 10:21:44;;;;;;;15.00;9.93;;;;;;;;;;4974167;28;20456;-46
2023/02/19 10:24:14;;;;;;;11.40;7.90;;;;;;;;;;4974116;28;20519;-46
2023/02/19 10:26:40;;;;;;;12.53;9.50;;;;;;;;;;4974261;28;20910;-43
2023/02/19 10:29:06;;;;;;;11.70;8.07;;;;;;;;;;4973323;28;20508;-43
2023/02/19 10:31:32;;;;;;;15.63;10.30;;;;;;;;;;4994270;28;20930;-45
2023/02/19 10:34:00;;;;;;;16.80;9.93;;;;;;;;;;5001134;28;20506;-43
2023/02/19 10:36:26;;;;;;;12.50;8.00;;;;;;;;;;4999080;28;20494;-45
2023/02/19 10:38:53;;;;;;;10.53;7.57;;;;;;;;;;5007474;28;20420;-45
2023/02/19 10:41:20;;;;;;;13.53;7.47;;;;;;;;;;4990598;28;20900;-43
2023/02/19 10:43:58;;;;;;;9.53;5.90;;;;;;;;;;4973398;28;20467;-42
2023/02/19 10:46:27;;;;;;;13.60;7.07;;;;;;;;;;4974096;28;20407;-43
2023/02/19 10:49:00;;;;;;;12.83;6.50;;;;;;;;;;4999501;28;20405;-42
2023/02/19 10:51:35;;;;;;;10.30;7.00;;;;;;;;;;4996125;28;20424;-43
2023/02/19 10:54:25;;;;;;;9.17;5.50;;;;;;;;;;4992368;28;20455;-46
2023/02/19 10:56:51;;;;;;;9.13;5.63;;;;;;;;;;4992881;28;20423;-42
2023/02/19 10:59:29;;;;;;;7.60;5.63;;;;;;;;;;4992834;28;20436;-42
2023/02/19 11:02:15;;;;;;;8.20;4.80;;;;;;;;;;4992639;28;20420;-43
2023/02/19 11:04:41;;;;;;;6.57;4.67;;;;;;;;;;4992565;28;20423;-43
2023/02/19 11:07:11;;;;;;;7.47;5.00;;;;;;;;;;4992487;28;20463;-43
2023/02/19 11:09:38;;;;;;;6.50;5.30;;;;;;;;;;4992617;28;20444;-46
2023/02/19 11:12:04;;;;;;;7.10;5.23;;;;;;;;;;4992595;28;20446;-42
2023/02/19 11:14:31;;;;;;;7.33;5.40;;;;;;;;;;4992078;28;20514;-42
2023/02/19 11:16:58;;;;;;;8.20;5.13;;;;;;;;;;4992682;28;20424;-42
2023/02/19 11:19:38;;;;;;;6.53;4.40;;;;;;;;;;4992544;28;20472;-44
2023/02/19 11:22:23;;;;;;;8.23;5.20;;;;;;;;;;4992230;28;20420;-43
2023/02/19 11:24:50;;;;;;;9.13;4.43;;;;;;;;;;4994960;28;20412;-42
2023/02/19 11:27:21;;;;;;;11.23;7.20;;;;;;;;;;5001047;28;20409;-43
2023/02/19 11:29:47;;;;;;;5.73;5.13;;;;;;;;;;4992276;28;20437;-43
2023/02/19 11:32:25;;;;;;;7.47;4.63;;;;;;;;;;5003893;28;20491;-43
2023/02/19 11:34:51;;;;;;;6.10;5.07;;;;;;;;;;4991449;28;20994;-42
2023/02/19 11:37:19;;;;;;;5.47;4.90;;;;;;;;;;4992317;28;20469;-43
2023/02/19 11:39:49;;;;;;;8.83;5.80;;;;;;;;;;4991990;28;20788;-44
2023/02/19 11:42:15;;;;;;;7.10;5.27;;;;;;;;;;4995716;28;20414;-42
2023/02/19 11:44:49;;;;;;;5.83;4.47;;;;;;;;;;4994442;28;20424;-42
2023/02/19 11:47:33;;;;;;;6.17;4.83;;;;;;;;;;4992071;28;20491;-42
2023/02/19 11:50:12;;;;;;;4.80;4.40;;;;;;;;;;4991629;28;20947;-43
2023/02/19 11:52:38;;;;;;;5.93;4.00;;;;;;;;;;4990358;28;20515;-43
2023/02/19 11:55:04;;;;;;;5.23;3.63;;;;;;;;;;4995661;28;20924;-43
2023/02/19 11:57:42;;;;;;;6.00;3.87;;;;;;;;;;5004874;28;20504;-43
2023/02/19 12:00:14;;;;;;;5.83;4.30;;;;;;;;;;4991800;28;20986;-42
2023/02/19 12:02:40;;;;;;;3.90;3.10;;;;;;;;;;4991686;28;20419;-43
2023/02/19 12:05:25;;;;;;;3.80;2.90;;;;;;;;;;4991227;28;20859;-45
2023/02/19 12:07:51;;;;;;;11.67;3.03;;;;;;;;;;4991875;28;20920;-44
2023/02/19 12:10:24;;;;;;;6.70;2.97;;;;;;;;;;4991789;28;20433;-43
2023/02/19 12:13:10;;;;;;;3.43;2.90;;;;;;;;;;4992012;28;20409;-43
2023/02/19 12:15:55;;;;;;;19.43;11.20;;;;;;;;;;4992016;28;20420;-47
2023/02/19 12:18:33;;;;;;;3.83;3.30;;;;;;;;;;4992100;28;20465;-47
2023/02/19 12:21:17;;;;;;;4.93;3.37;;;;;;;;;;4992497;28;20526;-45
2023/02/19 12:24:06;;;;;;;5.77;3.57;;;;;;;;;;4991176;28;20419;-45
2023/02/19 12:26:35;;;;;;;4.13;3.13;;;;;;;;;;4992138;28;20415;-45
2023/02/19 12:29:01;;;;;;;4.80;3.37;;;;;;;;;;4991834;28;20427;-47
2023/02/19 12:31:45;;;;;;;4.97;3.13;;;;;;;;;;4992099;28;20424;-46
2023/02/19 12:34:14;;;;;;;6.83;3.20;;;;;;;;;;4990025;28;20595;-44
2023/02/19 12:36:40;;;;;;;8.10;2.90;;;;;;;;;;4991778;28;20462;-45
2023/02/19 12:39:28;;;;;;;3.07;2.77;;;;;;;;;;4991603;28;20412;-44
2023/02/19 12:42:05;;;;;;;3.10;2.73;;;;;;;;;;4991512;28;20500;-44
2023/02/19 12:44:40;;;;;;;3.90;3.20;;;;;;;;;;4991240;28;20417;-44
2023/02/19 12:47:06;;;;;;;3.63;3.00;;;;;;;;;;4981772;28;20423;-44
2023/02/19 12:49:36;;;;;;;3.57;2.90;;;;;;;;;;4986710;28;20451;-44
2023/02/19 12:52:19;;;;;;;3.73;2.97;;;;;;;;;;5004427;28;20424;-44
2023/02/19 12:54:47;;;;;;;3.47;3.00;;;;;;;;;;4999970;28;20462;-44
2023/02/19 12:57:34;;;;;;;4.43;3.30;;;;;;;;;;5009632;28;20894;-44
2023/02/19 13:00:03;;;;;;;6.03;3.40;;;;;;;;;;4989860;28;20438;-44
2023/02/19 13:02:48;;;;;;;5.40;3.03;;;;;;;;;;4978489;28;20409;-44
2023/02/19 13:05:23;;;;;;;5.63;2.90;;;;;;;;;;4975081;28;20805;-44
2023/02/19 13:07:56;;;;;;;3.73;3.43;;;;;;;;;;5000408;28;20498;-46
2023/02/19 13:10:27;;;;;;;5.23;4.20;;;;;;;;;;4995312;28;20455;-47
2023/02/19 13:12:54;;;;;;;5.93;4.13;;;;;;;;;;4995176;28;20423;-45
2023/02/19 13:15:36;;;;;;;4.30;3.13;;;;;;;;;;4994354;28;20463;-47
2023/02/19 13:18:03;;;;;;;3.80;2.17;;;;;;;;;;4994767;28;20420;-47
2023/02/19 13:20:36;;;;;;;2.90;2.60;;;;;;;;;;4994437;28;20493;-47
2023/02/19 13:26:02;;;;;;;2.30;2.10;;;;;;;;;;4994833;28;20491;-45
2023/02/19 13:28:46;;;;;;;2.00;1.87;;;;;;;;;;4994622;28;20559;-45
2023/02/19 13:31:20;;;;;;;6.47;3.03;;;;;;;;;;4994173;28;20442;-45
2023/02/19 13:34:00;;;;;;;3.50;2.87;;;;;;;;;;4993629;28;20459;-45
2023/02/19 13:36:27;;;;;;;2.90;2.60;;;;;;;;;;4994691;28;20903;-45
2023/02/19 13:38:56;;;;;;;3.00;2.40;;;;;;;;;;4994432;28;20403;-47
2023/02/19 13:41:29;;;;;;;2.67;2.47;;;;;;;;;;4994459;28;20399;-45
2023/02/19 13:43:57;;;;;;;2.50;2.30;;;;;;;;;;5002824;28;20473;-44
2023/02/19 13:46:24;;;;;;;4.50;2.90;;;;;;;;;;4996276;28;20424;-44
2023/02/19 13:49:09;;;;;;;2.80;2.30;;;;;;;;;;4994144;28;20901;-44
2023/02/19 13:51:36;;;;;;;3.57;2.90;;;;;;;;;;4993959;28;20424;-44
2023/02/19 13:54:12;;;;;;;5.57;3.33;;;;;;;;;;4993442;28;20479;-44
2023/02/19 13:56:39;;;;;;;3.20;2.97;;;;;;;;;;4994224;28;20900;-44
2023/02/19 13:59:24;;;;;;;4.17;3.30;;;;;;;;;;4994240;28;20436;-44
2023/02/19 14:01:53;;;;;;;9.53;4.90;;;;;;;;;;4993927;28;20447;-44
2023/02/19 14:04:23;;;;;;;4.80;4.40;;;;;;;;;;4992018;28;20788;-44
2023/02/19 14:07:04;;;;;;;3.83;3.50;;;;;;;;;;4993962;28;21000;-44
2023/02/19 14:09:34;;;;;;;4.77;4.40;;;;;;;;;;4993731;28;20950;-44
2023/02/19 14:12:09;;;;;;;5.43;4.63;;;;;;;;;;4994066;28;20432;-44
2023/02/19 14:14:40;;;;;;;5.33;4.00;;;;;;;;;;4992670;28;20463;-44
2023/02/19 14:17:08;;;;;;;5.93;3.87;;;;;;;;;;4993814;28;20477;-44
2023/02/19 14:19:40;;;;;;;7.77;5.33;;;;;;;;;;4993692;28;20507;-44
2023/02/19 14:22:25;;;;;;;10.80;7.63;;;;;;;;;;4993992;28;20423;-44
2023/02/19 14:24:52;;;;;;;12.60;9.17;;;;;;;;;;4992772;28;20419;-44
2023/02/19 14:27:19;;;;;;;16.27;11.83;;;;;;;;;;4993399;28;20454;-44
2023/02/19 14:29:46;;;;;;;19.60;11.80;;;;;;;;;;4993577;28;20554;-44
2023/02/19 14:32:17;;;;;;;11.63;10.33;;;;;;;;;;4993505;28;20530;-44
2023/02/19 14:34:46;;;;;;;14.67;10.37;;;;;;;;;;4992597;28;20469;-44
2023/02/19 14:37:17;;;;;;;15.20;10.03;;;;;;;;;;4993617;28;20413;-44
2023/02/19 14:39:44;;;;;;;14.20;10.63;;;;;;;;;;4993452;28;20510;-45
2023/02/19 14:42:20;;;;;;;15.80;9.60;;;;;;;;;;4993286;28;20463;-45
2023/02/19 14:44:55;;;;;;;13.17;9.70;;;;;;;;;;4991757;28;20412;-44
2023/02/19 14:47:23;;;;;;;18.77;10.27;;;;;;;;;;4993077;28;20484;-44
2023/02/19 14:49:48;;;;;;;13.77;9.27;;;;;;;;;;4993100;28;20432;-44
2023/02/19 14:52:35;;;;;;;12.50;7.90;;;;;;;;;;4992955;28;20516;-44
2023/02/19 14:55:08;;;;;;;8.20;6.60;;;;;;;;;;4993240;28;20967;-44
2023/02/19 14:57:39;;;;;;;10.97;5.10;;;;;;;;;;4993153;28;20788;-44
2023/02/19 15:00:25;;;;;;;15.07;5.57;;;;;;;;;;4992915;28;20498;-44
2023/02/19 15:02:52;;;;;;;11.73;4.60;;;;;;;;;;4993240;28;20763;-44